sensor_id;sensor_type;location;lat;lon;timestamp;P1;durP1;ratioP1;P2;durP2;ratioP2
46675;SDS011;32412;51.478;5.694;2023-07-09T00:01:48;13.75;;;9.88;;
46675;SDS011;32412;51.478;5.694;2023-07-09T00:04:13;16.60;;;10.48;;
46675;SDS011;32412;51.478;5.694;2023-07-09T00:06:39;12.57;;;9.50;;
46675;SDS011;32412;51.478;5.694;2023-07-09T00:09:08;15.77;;;9.82;;
46675;SDS011;32412;51.478;5.694;2023-07-09T00:11:41;13.68;;;9.35;;
46675;SDS011;32412;51.478;5.694;2023-07-09T00:14:08;15.90;;;10.10;;
46675;SDS011;32412;51.478;5.694;2023-07-09T00:16:38;17.45;;;9.95;;
46675;SDS011;32412;51.478;5.694;2023-07-09T00:19:05;15.68;;;9.93;;
46675;SDS011;32412;51.478;5.694;2023-07-09T00:21:41;12.98;;;9.48;;
46675;SDS011;32412;51.478;5.694;2023-07-09T00:24:10;15.32;;;9.95;;
46675;SDS011;32412;51.478;5.694;2023-07-09T00:26:36;19.42;;;9.98;;
46675;SDS011;32412;51.478;5.694;2023-07-09T00:29:03;14.75;;;9.85;;
46675;SDS011;32412;51.478;5.694;2023-07-09T00:31:29;15.48;;;9.93;;
46675;SDS011;32412;51.478;5.694;2023-07-09T00:33:55;17.80;;;9.88;;
46675;SDS011;32412;51.478;5.694;2023-07-09T00:36:28;17.52;;;10.25;;
46675;SDS011;32412;51.478;5.694;2023-07-09T00:38:56;16.85;;;9.98;;
46675;SDS011;32412;51.478;5.694;2023-07-09T00:41:25;17.35;;;9.88;;
46675;SDS011;32412;51.478;5.694;2023-07-09T00:43:53;16.65;;;10.80;;
46675;SDS011;32412;51.478;5.694;2023-07-09T00:48:45;17.55;;;10.98;;
46675;SDS011;32412;51.478;5.694;2023-07-09T00:51:26;18.13;;;10.75;;
46675;SDS011;32412;51.478;5.694;2023-07-09T00:53:54;16.00;;;10.60;;
46675;SDS011;32412;51.478;5.694;2023-07-09T00:56:28;16.42;;;10.55;;
46675;SDS011;32412;51.478;5.694;2023-07-09T00:59:06;18.80;;;10.75;;
46675;SDS011;32412;51.478;5.694;2023-07-09T01:01:37;16.55;;;11.07;;
46675;SDS011;32412;51.478;5.694;2023-07-09T01:04:06;18.20;;;12.15;;
46675;SDS011;32412;51.478;5.694;2023-07-09T01:06:34;18.30;;;11.70;;
46675;SDS011;32412;51.478;5.694;2023-07-09T01:09:09;17.15;;;11.30;;
46675;SDS011;32412;51.478;5.694;2023-07-09T01:11:35;17.88;;;11.57;;
46675;SDS011;32412;51.478;5.694;2023-07-09T01:14:03;19.55;;;12.77;;
46675;SDS011;32412;51.478;5.694;2023-07-09T01:16:33;18.50;;;13.00;;
46675;SDS011;32412;51.478;5.694;2023-07-09T01:19:02;23.55;;;13.55;;
46675;SDS011;32412;51.478;5.694;2023-07-09T01:21:29;19.52;;;13.27;;
46675;SDS011;32412;51.478;5.694;2023-07-09T01:23:55;19.33;;;12.90;;
46675;SDS011;32412;51.478;5.694;2023-07-09T01:26:23;21.58;;;13.98;;
46675;SDS011;32412;51.478;5.694;2023-07-09T01:28:50;17.58;;;12.48;;
46675;SDS011;32412;51.478;5.694;2023-07-09T01:31:17;22.80;;;13.50;;
46675;SDS011;32412;51.478;5.694;2023-07-09T01:33:43;20.88;;;13.50;;
46675;SDS011;32412;51.478;5.694;2023-07-09T01:36:13;18.38;;;12.45;;
46675;SDS011;32412;51.478;5.694;2023-07-09T01:38:48;19.30;;;12.73;;
46675;SDS011;32412;51.478;5.694;2023-07-09T01:41:14;22.48;;;12.98;;
46675;SDS011;32412;51.478;5.694;2023-07-09T01:43:43;19.67;;;12.70;;
46675;SDS011;32412;51.478;5.694;2023-07-09T01:46:09;21.05;;;13.25;;
46675;SDS011;32412;51.478;5.694;2023-07-09T01:48:37;18.65;;;12.30;;
46675;SDS011;32412;51.478;5.694;2023-07-09T01:51:09;23.42;;;12.90;;
46675;SDS011;32412;51.478;5.694;2023-07-09T01:53:36;24.05;;;13.48;;
46675;SDS011;32412;51.478;5.694;2023-07-09T01:56:04;19.98;;;13.45;;
46675;SDS011;32412;51.478;5.694;2023-07-09T01:58:32;18.88;;;12.32;;
46675;SDS011;32412;51.478;5.694;2023-07-09T02:00:58;23.13;;;13.23;;
46675;SDS011;32412;51.478;5.694;2023-07-09T02:03:25;23.90;;;14.65;;
46675;SDS011;32412;51.478;5.694;2023-07-09T02:05:53;17.92;;;13.02;;
46675;SDS011;32412;51.478;5.694;2023-07-09T02:08:19;19.88;;;13.25;;
46675;SDS011;32412;51.478;5.694;2023-07-09T02:10:49;20.73;;;13.73;;
46675;SDS011;32412;51.478;5.694;2023-07-09T02:13:14;18.95;;;13.40;;
46675;SDS011;32412;51.478;5.694;2023-07-09T02:15:41;20.15;;;13.95;;
46675;SDS011;32412;51.478;5.694;2023-07-09T02:18:08;19.92;;;13.43;;
46675;SDS011;32412;51.478;5.694;2023-07-09T02:20:34;21.23;;;14.15;;
46675;SDS011;32412;51.478;5.694;2023-07-09T02:23:00;19.15;;;14.07;;
46675;SDS011;32412;51.478;5.694;2023-07-09T02:25:26;19.00;;;13.98;;
46675;SDS011;32412;51.478;5.694;2023-07-09T02:27:52;21.40;;;14.85;;
46675;SDS011;32412;51.478;5.694;2023-07-09T02:30:17;23.00;;;13.90;;
46675;SDS011;32412;51.478;5.694;2023-07-09T02:32:43;20.33;;;13.73;;
46675;SDS011;32412;51.478;5.694;2023-07-09T02:35:09;21.00;;;14.10;;
46675;SDS011;32412;51.478;5.694;2023-07-09T02:37:34;22.55;;;14.73;;
46675;SDS011;32412;51.478;5.694;2023-07-09T02:40:00;19.42;;;13.98;;
46675;SDS011;32412;51.478;5.694;2023-07-09T02:42:26;19.10;;;12.88;;
46675;SDS011;32412;51.478;5.694;2023-07-09T02:44:51;19.52;;;14.10;;
46675;SDS011;32412;51.478;5.694;2023-07-09T02:47:17;21.75;;;13.88;;
46675;SDS011;32412;51.478;5.694;2023-07-09T02:49:43;18.38;;;12.90;;
46675;SDS011;32412;51.478;5.694;2023-07-09T02:52:09;21.42;;;13.75;;
46675;SDS011;32412;51.478;5.694;2023-07-09T02:54:35;20.00;;;13.48;;
46675;SDS011;32412;51.478;5.694;2023-07-09T02:57:01;23.35;;;13.98;;
46675;SDS011;32412;51.478;5.694;2023-07-09T02:59:26;20.65;;;12.85;;
46675;SDS011;32412;51.478;5.694;2023-07-09T03:01:54;21.83;;;14.43;;
46675;SDS011;32412;51.478;5.694;2023-07-09T03:04:20;21.73;;;14.30;;
46675;SDS011;32412;51.478;5.694;2023-07-09T03:06:46;21.02;;;13.23;;
46675;SDS011;32412;51.478;5.694;2023-07-09T03:09:12;26.85;;;14.38;;
46675;SDS011;32412;51.478;5.694;2023-07-09T03:11:38;21.40;;;14.40;;
46675;SDS011;32412;51.478;5.694;2023-07-09T03:14:03;22.38;;;14.10;;
46675;SDS011;32412;51.478;5.694;2023-07-09T03:16:30;26.55;;;14.02;;
46675;SDS011;32412;51.478;5.694;2023-07-09T03:18:57;19.08;;;12.73;;
46675;SDS011;32412;51.478;5.694;2023-07-09T03:21:24;20.42;;;13.80;;
46675;SDS011;32412;51.478;5.694;2023-07-09T03:23:51;22.25;;;14.82;;
46675;SDS011;32412;51.478;5.694;2023-07-09T03:26:17;25.02;;;14.68;;
46675;SDS011;32412;51.478;5.694;2023-07-09T03:28:43;19.83;;;13.32;;
46675;SDS011;32412;51.478;5.694;2023-07-09T03:31:09;23.83;;;14.65;;
46675;SDS011;32412;51.478;5.694;2023-07-09T03:33:34;21.58;;;14.23;;
46675;SDS011;32412;51.478;5.694;2023-07-09T03:36:00;23.83;;;14.57;;
46675;SDS011;32412;51.478;5.694;2023-07-09T03:38:26;22.17;;;14.60;;
46675;SDS011;32412;51.478;5.694;2023-07-09T03:40:52;19.13;;;13.40;;
46675;SDS011;32412;51.478;5.694;2023-07-09T03:43:18;19.35;;;14.38;;
46675;SDS011;32412;51.478;5.694;2023-07-09T03:45:45;21.80;;;14.90;;
46675;SDS011;32412;51.478;5.694;2023-07-09T03:48:11;21.85;;;14.00;;
46675;SDS011;32412;51.478;5.694;2023-07-09T03:50:37;21.02;;;14.35;;
46675;SDS011;32412;51.478;5.694;2023-07-09T03:53:03;20.63;;;14.80;;
46675;SDS011;32412;51.478;5.694;2023-07-09T03:55:28;20.58;;;14.05;;
46675;SDS011;32412;51.478;5.694;2023-07-09T03:57:54;21.27;;;15.20;;
46675;SDS011;32412;51.478;5.694;2023-07-09T04:00:20;21.10;;;14.70;;
46675;SDS011;32412;51.478;5.694;2023-07-09T04:02:46;23.67;;;14.82;;
46675;SDS011;32412;51.478;5.694;2023-07-09T04:05:12;21.13;;;15.18;;
46675;SDS011;32412;51.478;5.694;2023-07-09T04:07:38;20.75;;;15.55;;
46675;SDS011;32412;51.478;5.694;2023-07-09T04:10:04;21.15;;;15.68;;
46675;SDS011;32412;51.478;5.694;2023-07-09T04:12:31;20.15;;;15.63;;
46675;SDS011;32412;51.478;5.694;2023-07-09T04:14:57;22.48;;;15.95;;
46675;SDS011;32412;51.478;5.694;2023-07-09T04:17:23;23.25;;;15.50;;
46675;SDS011;32412;51.478;5.694;2023-07-09T04:19:52;22.42;;;14.70;;
46675;SDS011;32412;51.478;5.694;2023-07-09T04:22:18;24.15;;;14.85;;
46675;SDS011;32412;51.478;5.694;2023-07-09T04:24:44;23.00;;;15.40;;
46675;SDS011;32412;51.478;5.694;2023-07-09T04:27:10;24.75;;;15.77;;
46675;SDS011;32412;51.478;5.694;2023-07-09T04:29:36;19.48;;;14.48;;
46675;SDS011;32412;51.478;5.694;2023-07-09T04:32:03;21.55;;;15.95;;
46675;SDS011;32412;51.478;5.694;2023-07-09T04:34:30;22.05;;;16.02;;
46675;SDS011;32412;51.478;5.694;2023-07-09T04:36:56;21.98;;;15.15;;
46675;SDS011;32412;51.478;5.694;2023-07-09T04:39:21;21.33;;;15.40;;
46675;SDS011;32412;51.478;5.694;2023-07-09T04:41:47;24.65;;;16.38;;
46675;SDS011;32412;51.478;5.694;2023-07-09T04:44:13;21.77;;;15.65;;
46675;SDS011;32412;51.478;5.694;2023-07-09T04:46:39;26.67;;;16.67;;
46675;SDS011;32412;51.478;5.694;2023-07-09T04:49:05;24.85;;;16.85;;
46675;SDS011;32412;51.478;5.694;2023-07-09T04:51:30;23.67;;;16.17;;
46675;SDS011;32412;51.478;5.694;2023-07-09T04:53:56;23.65;;;16.45;;
46675;SDS011;32412;51.478;5.694;2023-07-09T04:56:22;24.40;;;16.58;;
46675;SDS011;32412;51.478;5.694;2023-07-09T04:58:48;27.10;;;17.15;;
46675;SDS011;32412;51.478;5.694;2023-07-09T05:01:14;24.77;;;17.02;;
46675;SDS011;32412;51.478;5.694;2023-07-09T05:03:39;20.48;;;14.55;;
46675;SDS011;32412;51.478;5.694;2023-07-09T05:06:05;23.60;;;16.65;;
46675;SDS011;32412;51.478;5.694;2023-07-09T05:08:31;24.77;;;16.30;;
46675;SDS011;32412;51.478;5.694;2023-07-09T05:10:56;23.92;;;15.85;;
46675;SDS011;32412;51.478;5.694;2023-07-09T05:13:23;23.27;;;16.05;;
46675;SDS011;32412;51.478;5.694;2023-07-09T05:15:49;26.85;;;15.88;;
46675;SDS011;32412;51.478;5.694;2023-07-09T05:18:15;20.95;;;15.25;;
46675;SDS011;32412;51.478;5.694;2023-07-09T05:20:42;19.98;;;14.82;;
46675;SDS011;32412;51.478;5.694;2023-07-09T05:23:08;22.83;;;15.82;;
46675;SDS011;32412;51.478;5.694;2023-07-09T05:25:34;24.60;;;16.10;;
46675;SDS011;32412;51.478;5.694;2023-07-09T05:28:00;22.15;;;15.52;;
46675;SDS011;32412;51.478;5.694;2023-07-09T05:30:26;21.98;;;15.00;;
46675;SDS011;32412;51.478;5.694;2023-07-09T05:32:51;21.42;;;14.93;;
46675;SDS011;32412;51.478;5.694;2023-07-09T05:35:20;22.40;;;14.30;;
46675;SDS011;32412;51.478;5.694;2023-07-09T05:37:46;24.02;;;15.02;;
46675;SDS011;32412;51.478;5.694;2023-07-09T05:40:12;22.10;;;15.43;;
46675;SDS011;32412;51.478;5.694;2023-07-09T05:42:38;21.73;;;14.60;;
46675;SDS011;32412;51.478;5.694;2023-07-09T05:45:03;21.52;;;14.20;;
46675;SDS011;32412;51.478;5.694;2023-07-09T05:47:29;23.35;;;15.50;;
46675;SDS011;32412;51.478;5.694;2023-07-09T05:49:55;18.15;;;13.32;;
46675;SDS011;32412;51.478;5.694;2023-07-09T05:52:21;17.58;;;13.15;;
46675;SDS011;32412;51.478;5.694;2023-07-09T05:54:48;19.42;;;13.40;;
46675;SDS011;32412;51.478;5.694;2023-07-09T05:57:14;19.90;;;14.80;;
46675;SDS011;32412;51.478;5.694;2023-07-09T05:59:40;25.58;;;14.40;;
46675;SDS011;32412;51.478;5.694;2023-07-09T06:02:10;19.95;;;13.07;;
46675;SDS011;32412;51.478;5.694;2023-07-09T06:04:37;20.50;;;12.80;;
46675;SDS011;32412;51.478;5.694;2023-07-09T06:07:02;22.30;;;13.80;;
46675;SDS011;32412;51.478;5.694;2023-07-09T06:09:29;17.42;;;13.07;;
46675;SDS011;32412;51.478;5.694;2023-07-09T06:11:55;17.95;;;12.85;;
46675;SDS011;32412;51.478;5.694;2023-07-09T06:14:20;17.65;;;12.63;;
46675;SDS011;32412;51.478;5.694;2023-07-09T06:16:46;17.23;;;12.30;;
46675;SDS011;32412;51.478;5.694;2023-07-09T06:19:12;20.40;;;13.05;;
46675;SDS011;32412;51.478;5.694;2023-07-09T06:21:38;20.77;;;13.30;;
46675;SDS011;32412;51.478;5.694;2023-07-09T06:24:05;20.67;;;12.55;;
46675;SDS011;32412;51.478;5.694;2023-07-09T06:26:32;16.77;;;12.90;;
46675;SDS011;32412;51.478;5.694;2023-07-09T06:28:57;17.48;;;12.40;;
46675;SDS011;32412;51.478;5.694;2023-07-09T06:31:23;17.25;;;12.60;;
46675;SDS011;32412;51.478;5.694;2023-07-09T06:33:49;20.98;;;12.70;;
46675;SDS011;32412;51.478;5.694;2023-07-09T06:36:16;18.63;;;12.10;;
46675;SDS011;32412;51.478;5.694;2023-07-09T06:38:43;14.32;;;11.68;;
46675;SDS011;32412;51.478;5.694;2023-07-09T06:41:09;14.65;;;11.27;;
46675;SDS011;32412;51.478;5.694;2023-07-09T06:43:35;16.63;;;11.43;;
46675;SDS011;32412;51.478;5.694;2023-07-09T06:46:04;16.15;;;10.60;;
46675;SDS011;32412;51.478;5.694;2023-07-09T06:48:31;15.98;;;10.23;;
46675;SDS011;32412;51.478;5.694;2023-07-09T06:50:57;14.70;;;9.90;;
46675;SDS011;32412;51.478;5.694;2023-07-09T06:53:24;15.13;;;10.20;;
46675;SDS011;32412;51.478;5.694;2023-07-09T06:55:51;13.35;;;9.63;;
46675;SDS011;32412;51.478;5.694;2023-07-09T06:58:21;11.93;;;9.02;;
46675;SDS011;32412;51.478;5.694;2023-07-09T07:00:48;10.95;;;8.90;;
46675;SDS011;32412;51.478;5.694;2023-07-09T07:03:14;18.73;;;9.68;;
46675;SDS011;32412;51.478;5.694;2023-07-09T07:05:47;12.88;;;10.07;;
46675;SDS011;32412;51.478;5.694;2023-07-09T07:08:15;12.73;;;9.33;;
46675;SDS011;32412;51.478;5.694;2023-07-09T07:10:42;13.98;;;9.20;;
46675;SDS011;32412;51.478;5.694;2023-07-09T07:13:08;14.93;;;9.40;;
46675;SDS011;32412;51.478;5.694;2023-07-09T07:15:36;13.82;;;8.73;;
46675;SDS011;32412;51.478;5.694;2023-07-09T07:18:02;12.82;;;8.30;;
46675;SDS011;32412;51.478;5.694;2023-07-09T07:20:29;11.80;;;8.35;;
46675;SDS011;32412;51.478;5.694;2023-07-09T07:22:54;13.10;;;8.63;;
46675;SDS011;32412;51.478;5.694;2023-07-09T07:25:21;9.23;;;7.82;;
46675;SDS011;32412;51.478;5.694;2023-07-09T07:27:47;13.25;;;7.75;;
46675;SDS011;32412;51.478;5.694;2023-07-09T07:30:13;11.63;;;7.97;;
46675;SDS011;32412;51.478;5.694;2023-07-09T07:32:45;12.73;;;7.70;;
46675;SDS011;32412;51.478;5.694;2023-07-09T07:35:12;13.30;;;9.43;;
46675;SDS011;32412;51.478;5.694;2023-07-09T07:37:39;15.27;;;8.07;;
46675;SDS011;32412;51.478;5.694;2023-07-09T07:40:08;12.25;;;7.78;;
46675;SDS011;32412;51.478;5.694;2023-07-09T07:42:40;11.95;;;7.65;;
46675;SDS011;32412;51.478;5.694;2023-07-09T07:45:06;11.65;;;6.63;;
46675;SDS011;32412;51.478;5.694;2023-07-09T07:47:32;9.30;;;6.30;;
46675;SDS011;32412;51.478;5.694;2023-07-09T07:49:58;9.02;;;6.30;;
46675;SDS011;32412;51.478;5.694;2023-07-09T07:52:24;8.20;;;6.07;;
46675;SDS011;32412;51.478;5.694;2023-07-09T07:54:51;10.45;;;6.72;;
46675;SDS011;32412;51.478;5.694;2023-07-09T07:57:17;10.75;;;6.55;;
46675;SDS011;32412;51.478;5.694;2023-07-09T07:59:43;9.23;;;5.90;;
46675;SDS011;32412;51.478;5.694;2023-07-09T08:02:12;10.30;;;5.97;;
46675;SDS011;32412;51.478;5.694;2023-07-09T08:04:39;9.88;;;5.70;;
46675;SDS011;32412;51.478;5.694;2023-07-09T08:07:07;10.98;;;5.47;;
46675;SDS011;32412;51.478;5.694;2023-07-09T08:09:36;9.80;;;5.68;;
46675;SDS011;32412;51.478;5.694;2023-07-09T08:12:05;8.80;;;4.95;;
46675;SDS011;32412;51.478;5.694;2023-07-09T08:14:38;9.20;;;5.50;;
46675;SDS011;32412;51.478;5.694;2023-07-09T08:17:05;9.73;;;5.32;;
46675;SDS011;32412;51.478;5.694;2023-07-09T08:19:31;9.57;;;5.10;;
46675;SDS011;32412;51.478;5.694;2023-07-09T08:21:58;12.00;;;6.05;;
46675;SDS011;32412;51.478;5.694;2023-07-09T08:24:24;8.98;;;5.78;;
46675;SDS011;32412;51.478;5.694;2023-07-09T08:26:49;7.90;;;5.65;;
46675;SDS011;32412;51.478;5.694;2023-07-09T08:29:16;7.63;;;5.47;;
46675;SDS011;32412;51.478;5.694;2023-07-09T08:31:41;9.43;;;5.95;;
46675;SDS011;32412;51.478;5.694;2023-07-09T08:34:07;10.07;;;6.53;;
46675;SDS011;32412;51.478;5.694;2023-07-09T08:36:33;9.00;;;6.30;;
46675;SDS011;32412;51.478;5.694;2023-07-09T08:39:02;10.52;;;6.13;;
46675;SDS011;32412;51.478;5.694;2023-07-09T08:49:46;9.10;;;6.07;;
46675;SDS011;32412;51.478;5.694;2023-07-09T08:52:38;9.18;;;6.38;;
46675;SDS011;32412;51.478;5.694;2023-07-09T08:55:06;10.75;;;6.25;;
46675;SDS011;32412;51.478;5.694;2023-07-09T08:57:44;9.38;;;6.38;;
46675;SDS011;32412;51.478;5.694;2023-07-09T09:00:27;9.75;;;7.00;;
46675;SDS011;32412;51.478;5.694;2023-07-09T09:03:00;10.48;;;6.47;;
46675;SDS011;32412;51.478;5.694;2023-07-09T09:05:33;7.70;;;5.95;;
46675;SDS011;32412;51.478;5.694;2023-07-09T09:08:18;8.30;;;6.60;;
46675;SDS011;32412;51.478;5.694;2023-07-09T09:10:47;10.00;;;6.78;;
46675;SDS011;32412;51.478;5.694;2023-07-09T09:13:23;12.07;;;6.65;;
46675;SDS011;32412;51.478;5.694;2023-07-09T09:15:52;7.53;;;6.25;;
46675;SDS011;32412;51.478;5.694;2023-07-09T09:18:25;10.77;;;6.60;;
46675;SDS011;32412;51.478;5.694;2023-07-09T09:20:55;7.53;;;6.63;;
46675;SDS011;32412;51.478;5.694;2023-07-09T09:23:22;8.85;;;6.55;;
46675;SDS011;32412;51.478;5.694;2023-07-09T09:25:55;10.10;;;6.45;;
46675;SDS011;32412;51.478;5.694;2023-07-09T09:28:22;7.90;;;5.95;;
46675;SDS011;32412;51.478;5.694;2023-07-09T09:30:49;6.18;;;5.57;;
46675;SDS011;32412;51.478;5.694;2023-07-09T09:33:16;10.50;;;6.82;;
46675;SDS011;32412;51.478;5.694;2023-07-09T09:35:44;10.25;;;6.07;;
46675;SDS011;32412;51.478;5.694;2023-07-09T09:38:11;9.70;;;6.10;;
46675;SDS011;32412;51.478;5.694;2023-07-09T09:40:44;11.38;;;6.30;;
46675;SDS011;32412;51.478;5.694;2023-07-09T09:43:12;9.48;;;5.40;;
46675;SDS011;32412;51.478;5.694;2023-07-09T09:45:44;9.70;;;5.30;;
46675;SDS011;32412;51.478;5.694;2023-07-09T09:48:30;8.07;;;5.03;;
46675;SDS011;32412;51.478;5.694;2023-07-09T09:50:57;7.18;;;5.30;;
46675;SDS011;32412;51.478;5.694;2023-07-09T09:53:26;12.90;;;5.30;;
46675;SDS011;32412;51.478;5.694;2023-07-09T09:55:55;7.30;;;5.78;;
46675;SDS011;32412;51.478;5.694;2023-07-09T09:58:25;10.75;;;6.40;;
46675;SDS011;32412;51.478;5.694;2023-07-09T10:00:55;8.52;;;5.88;;
46675;SDS011;32412;51.478;5.694;2023-07-09T10:03:32;6.00;;;5.38;;
46675;SDS011;32412;51.478;5.694;2023-07-09T10:05:59;7.72;;;5.85;;
46675;SDS011;32412;51.478;5.694;2023-07-09T10:08:43;8.73;;;6.03;;
46675;SDS011;32412;51.478;5.694;2023-07-09T10:11:45;6.85;;;5.93;;
46675;SDS011;32412;51.478;5.694;2023-07-09T10:14:33;8.73;;;6.15;;
46675;SDS011;32412;51.478;5.694;2023-07-09T10:17:15;7.72;;;5.88;;
46675;SDS011;32412;51.478;5.694;2023-07-09T10:19:48;9.02;;;5.68;;
46675;SDS011;32412;51.478;5.694;2023-07-09T10:25:33;9.60;;;4.95;;
46675;SDS011;32412;51.478;5.694;2023-07-09T10:31:06;6.38;;;5.47;;
46675;SDS011;32412;51.478;5.694;2023-07-09T10:41:35;5.72;;;5.20;;
46675;SDS011;32412;51.478;5.694;2023-07-09T10:44:06;6.32;;;4.68;;
46675;SDS011;32412;51.478;5.694;2023-07-09T10:46:42;10.65;;;5.03;;
46675;SDS011;32412;51.478;5.694;2023-07-09T10:49:11;5.82;;;4.93;;
46675;SDS011;32412;51.478;5.694;2023-07-09T10:51:39;7.57;;;4.47;;
46675;SDS011;32412;51.478;5.694;2023-07-09T10:56:59;9.32;;;5.70;;
46675;SDS011;32412;51.478;5.694;2023-07-09T10:59:33;7.25;;;5.22;;
46675;SDS011;32412;51.478;5.694;2023-07-09T11:07:19;7.53;;;5.88;;
46675;SDS011;32412;51.478;5.694;2023-07-09T11:09:52;10.60;;;4.97;;
46675;SDS011;32412;51.478;5.694;2023-07-09T11:12:32;7.13;;;5.10;;
46675;SDS011;32412;51.478;5.694;2023-07-09T11:15:08;6.15;;;4.53;;
46675;SDS011;32412;51.478;5.694;2023-07-09T11:17:42;6.45;;;4.82;;
46675;SDS011;32412;51.478;5.694;2023-07-09T11:20:23;5.63;;;4.95;;
46675;SDS011;32412;51.478;5.694;2023-07-09T11:23:06;6.85;;;5.40;;
46675;SDS011;32412;51.478;5.694;2023-07-09T11:25:42;10.40;;;5.20;;
46675;SDS011;32412;51.478;5.694;2023-07-09T11:28:10;10.57;;;5.38;;
46675;SDS011;32412;51.478;5.694;2023-07-09T11:33:29;7.37;;;5.80;;
46675;SDS011;32412;51.478;5.694;2023-07-09T11:36:08;10.70;;;6.20;;
46675;SDS011;32412;51.478;5.694;2023-07-09T11:38:46;8.65;;;6.05;;
46675;SDS011;32412;51.478;5.694;2023-07-09T11:52:22;6.85;;;5.15;;
46675;SDS011;32412;51.478;5.694;2023-07-09T11:54:56;8.23;;;4.65;;
46675;SDS011;32412;51.478;5.694;2023-07-09T11:57:21;8.43;;;5.05;;
46675;SDS011;32412;51.478;5.694;2023-07-09T11:59:47;5.82;;;5.07;;
46675;SDS011;32412;51.478;5.694;2023-07-09T12:02:19;9.48;;;4.85;;
46675;SDS011;32412;51.478;5.694;2023-07-09T12:04:50;7.70;;;4.28;;
46675;SDS011;32412;51.478;5.694;2023-07-09T12:07:17;6.65;;;4.38;;
46675;SDS011;32412;51.478;5.694;2023-07-09T12:09:47;8.50;;;4.25;;
46675;SDS011;32412;51.478;5.694;2023-07-09T12:12:23;5.50;;;3.70;;
46675;SDS011;32412;51.478;5.694;2023-07-09T12:14:51;6.10;;;4.35;;
46675;SDS011;32412;51.478;5.694;2023-07-09T12:17:17;7.25;;;4.00;;
46675;SDS011;32412;51.478;5.694;2023-07-09T12:19:43;6.22;;;4.63;;
46675;SDS011;32412;51.478;5.694;2023-07-09T12:22:10;5.15;;;4.25;;
46675;SDS011;32412;51.478;5.694;2023-07-09T12:24:47;5.20;;;4.57;;
46675;SDS011;32412;51.478;5.694;2023-07-09T12:27:22;7.40;;;5.00;;
46675;SDS011;32412;51.478;5.694;2023-07-09T12:29:52;5.80;;;4.38;;
46675;SDS011;32412;51.478;5.694;2023-07-09T12:32:19;4.93;;;4.47;;
46675;SDS011;32412;51.478;5.694;2023-07-09T12:34:51;5.88;;;4.60;;
46675;SDS011;32412;51.478;5.694;2023-07-09T12:37:18;5.63;;;4.30;;
46675;SDS011;32412;51.478;5.694;2023-07-09T12:39:45;5.45;;;4.70;;
46675;SDS011;32412;51.478;5.694;2023-07-09T12:42:16;5.88;;;4.20;;
46675;SDS011;32412;51.478;5.694;2023-07-09T12:44:48;6.55;;;4.35;;
46675;SDS011;32412;51.478;5.694;2023-07-09T12:47:14;12.80;;;4.45;;
46675;SDS011;32412;51.478;5.694;2023-07-09T12:49:43;6.75;;;4.57;;
46675;SDS011;32412;51.478;5.694;2023-07-09T12:52:15;6.85;;;4.28;;
46675;SDS011;32412;51.478;5.694;2023-07-09T12:54:51;9.18;;;5.40;;
46675;SDS011;32412;51.478;5.694;2023-07-09T12:57:21;10.60;;;6.20;;
46675;SDS011;32412;51.478;5.694;2023-07-09T12:59:47;7.32;;;5.47;;
46675;SDS011;32412;51.478;5.694;2023-07-09T13:02:17;6.20;;;5.60;;
46675;SDS011;32412;51.478;5.694;2023-07-09T13:04:43;13.85;;;5.00;;
46675;SDS011;32412;51.478;5.694;2023-07-09T13:09:53;6.60;;;4.72;;
46675;SDS011;32412;51.478;5.694;2023-07-09T13:12:20;7.78;;;5.18;;
46675;SDS011;32412;51.478;5.694;2023-07-09T13:14:53;7.00;;;5.25;;
46675;SDS011;32412;51.478;5.694;2023-07-09T13:17:19;6.07;;;5.25;;
46675;SDS011;32412;51.478;5.694;2023-07-09T13:19:45;9.07;;;5.85;;
46675;SDS011;32412;51.478;5.694;2023-07-09T13:22:15;8.80;;;6.30;;
46675;SDS011;32412;51.478;5.694;2023-07-09T13:24:41;13.68;;;8.40;;
46675;SDS011;32412;51.478;5.694;2023-07-09T13:27:09;10.63;;;8.35;;
46675;SDS011;32412;51.478;5.694;2023-07-09T13:29:38;9.07;;;8.00;;
46675;SDS011;32412;51.478;5.694;2023-07-09T13:32:11;9.93;;;8.52;;
46675;SDS011;32412;51.478;5.694;2023-07-09T13:34:39;10.52;;;8.07;;
46675;SDS011;32412;51.478;5.694;2023-07-09T13:37:05;13.95;;;10.98;;
46675;SDS011;32412;51.478;5.694;2023-07-09T13:39:37;14.82;;;10.30;;
46675;SDS011;32412;51.478;5.694;2023-07-09T13:42:04;13.30;;;11.38;;
46675;SDS011;32412;51.478;5.694;2023-07-09T13:44:34;16.02;;;11.48;;
46675;SDS011;32412;51.478;5.694;2023-07-09T13:47:00;17.13;;;12.30;;
46675;SDS011;32412;51.478;5.694;2023-07-09T13:49:26;19.25;;;10.98;;
46675;SDS011;32412;51.478;5.694;2023-07-09T13:51:55;15.45;;;11.93;;
46675;SDS011;32412;51.478;5.694;2023-07-09T13:54:24;19.60;;;12.43;;
46675;SDS011;32412;51.478;5.694;2023-07-09T13:56:52;18.13;;;13.57;;
46675;SDS011;32412;51.478;5.694;2023-07-09T13:59:19;27.10;;;17.65;;
46675;SDS011;32412;51.478;5.694;2023-07-09T14:01:52;27.17;;;18.13;;
46675;SDS011;32412;51.478;5.694;2023-07-09T14:04:20;29.58;;;20.98;;
46675;SDS011;32412;51.478;5.694;2023-07-09T14:06:47;25.75;;;19.33;;
46675;SDS011;32412;51.478;5.694;2023-07-09T14:09:13;37.85;;;23.48;;
46675;SDS011;32412;51.478;5.694;2023-07-09T14:11:41;33.75;;;22.08;;
46675;SDS011;32412;51.478;5.694;2023-07-09T14:14:22;32.55;;;21.42;;
46675;SDS011;32412;51.478;5.694;2023-07-09T14:16:52;30.63;;;22.98;;
46675;SDS011;32412;51.478;5.694;2023-07-09T14:19:19;27.35;;;19.58;;
46675;SDS011;32412;51.478;5.694;2023-07-09T14:21:47;23.30;;;19.40;;
46675;SDS011;32412;51.478;5.694;2023-07-09T14:26:47;29.33;;;19.07;;
46675;SDS011;32412;51.478;5.694;2023-07-09T14:29:14;26.27;;;20.88;;
46675;SDS011;32412;51.478;5.694;2023-07-09T14:31:39;22.85;;;15.75;;
46675;SDS011;32412;51.478;5.694;2023-07-09T14:34:22;23.38;;;16.38;;
46675;SDS011;32412;51.478;5.694;2023-07-09T14:36:50;20.55;;;15.98;;
46675;SDS011;32412;51.478;5.694;2023-07-09T14:39:17;20.67;;;14.00;;
46675;SDS011;32412;51.478;5.694;2023-07-09T14:41:43;16.65;;;13.82;;
46675;SDS011;32412;51.478;5.694;2023-07-09T14:44:31;15.07;;;12.63;;
46675;SDS011;32412;51.478;5.694;2023-07-09T14:46:57;19.88;;;13.45;;
46675;SDS011;32412;51.478;5.694;2023-07-09T14:49:24;17.48;;;11.88;;
46675;SDS011;32412;51.478;5.694;2023-07-09T14:51:51;13.27;;;10.15;;
46675;SDS011;32412;51.478;5.694;2023-07-09T14:54:18;11.75;;;9.05;;
46675;SDS011;32412;51.478;5.694;2023-07-09T14:56:55;12.40;;;8.98;;
46675;SDS011;32412;51.478;5.694;2023-07-09T14:59:22;11.77;;;8.00;;
46675;SDS011;32412;51.478;5.694;2023-07-09T15:01:49;12.52;;;8.35;;
46675;SDS011;32412;51.478;5.694;2023-07-09T15:06:47;13.07;;;8.90;;
46675;SDS011;32412;51.478;5.694;2023-07-09T15:09:20;9.75;;;8.60;;
46675;SDS011;32412;51.478;5.694;2023-07-09T15:11:51;10.23;;;7.97;;
46675;SDS011;32412;51.478;5.694;2023-07-09T15:14:19;9.90;;;8.73;;
46675;SDS011;32412;51.478;5.694;2023-07-09T15:16:46;10.75;;;8.40;;
46675;SDS011;32412;51.478;5.694;2023-07-09T15:19:13;12.25;;;7.20;;
46675;SDS011;32412;51.478;5.694;2023-07-09T15:21:39;7.80;;;6.93;;
46675;SDS011;32412;51.478;5.694;2023-07-09T15:24:10;9.05;;;7.22;;
46675;SDS011;32412;51.478;5.694;2023-07-09T15:26:53;9.90;;;8.10;;
46675;SDS011;32412;51.478;5.694;2023-07-09T15:29:20;9.65;;;7.90;;
46675;SDS011;32412;51.478;5.694;2023-07-09T15:31:46;13.38;;;8.13;;
46675;SDS011;32412;51.478;5.694;2023-07-09T15:34:12;11.27;;;8.50;;